sensor_id;sensor_type;location;lat;lon;timestamp;pressure;altitude;pressure_sealevel;temperature;humidity
6869;BME280;3473;42.604;23.496;2022-08-02T00:00:14;19637.81;;;-140.19;52.60
6869;BME280;3473;42.604;23.496;2022-08-02T00:01:46;19645.56;;;-140.19;52.00
6869;BME280;3473;42.604;23.496;2022-08-02T00:03:18;19622.28;;;-140.19;51.76
6869;BME280;3473;42.604;23.496;2022-08-02T00:04:50;19618.41;;;-140.19;51.31
6869;BME280;3473;42.604;23.496;2022-08-02T00:06:22;19581.53;;;-140.19;51.05
6869;BME280;3473;42.604;23.496;2022-08-02T00:07:54;19618.41;;;-140.19;50.77
6869;BME280;3473;42.604;23.496;2022-08-02T00:09:25;19637.81;;;-140.19;50.63
6869;BME280;3473;42.604;23.496;2022-08-02T00:10:57;19645.56;;;-140.19;50.37
6869;BME280;3473;42.604;23.496;2022-08-02T00:12:29;19672.75;;;-140.19;50.41
6869;BME280;3473;42.604;23.496;2022-08-02T00:14:00;19616.47;;;-140.19;49.97
6869;BME280;3473;42.604;23.496;2022-08-02T00:15:31;19668.88;;;-140.19;49.97
6869;BME280;3473;42.604;23.496;2022-08-02T00:17:03;19655.28;;;-140.19;49.78
6869;BME280;3473;42.604;23.496;2022-08-02T00:18:35;19657.22;;;-140.19;49.74
6869;BME280;3473;42.604;23.496;2022-08-02T00:20:08;19661.09;;;-140.19;49.62
6869;BME280;3473;42.604;23.496;2022-08-02T00:21:40;19688.28;;;-140.19;49.81
6869;BME280;3473;42.604;23.496;2022-08-02T00:23:13;19676.63;;;-140.19;49.77
6869;BME280;3473;42.604;23.496;2022-08-02T00:24:43;19560.19;;;-140.19;49.82
6869;BME280;3473;42.604;23.496;2022-08-02T00:26:15;19651.41;;;-140.19;49.72
6869;BME280;3473;42.604;23.496;2022-08-02T00:27:47;19686.34;;;-140.19;49.70
6869;BME280;3473;42.604;23.496;2022-08-02T00:29:19;19645.56;;;-140.19;49.83
6869;BME280;3473;42.604;23.496;2022-08-02T00:30:50;19587.34;;;-140.19;50.12
6869;BME280;3473;42.604;23.496;2022-08-02T00:32:22;19674.69;;;-140.19;50.51
6869;BME280;3473;42.604;23.496;2022-08-02T00:33:54;19647.50;;;-140.19;51.46
6869;BME280;3473;42.604;23.496;2022-08-02T00:35:26;19653.34;;;-140.19;52.83
6869;BME280;3473;42.604;23.496;2022-08-02T00:36:58;19812.47;;;-140.19;53.46
6869;BME280;3473;42.604;23.496;2022-08-02T00:38:31;19647.50;;;-140.19;54.29
6869;BME280;3473;42.604;23.496;2022-08-02T00:40:03;19579.59;;;-140.19;54.15
6869;BME280;3473;42.604;23.496;2022-08-02T00:41:44;19581.53;;;-140.19;54.42
6869;BME280;3473;42.604;23.496;2022-08-02T00:43:16;19552.41;;;-140.19;55.40
6869;BME280;3473;42.604;23.496;2022-08-02T00:44:48;19571.81;;;-140.19;56.21
6869;BME280;3473;42.604;23.496;2022-08-02T00:46:20;19556.31;;;-140.19;56.52
6869;BME280;3473;42.604;23.496;2022-08-02T00:47:52;19507.78;;;-140.19;56.78
6869;BME280;3473;42.604;23.496;2022-08-02T00:49:24;19587.34;;;-140.19;56.94
6869;BME280;3473;42.604;23.496;2022-08-02T00:50:55;19589.28;;;-140.19;57.15
6869;BME280;3473;42.604;23.496;2022-08-02T00:52:26;19544.66;;;-140.19;57.14
6869;BME280;3473;42.604;23.496;2022-08-02T00:54:00;19498.06;;;-140.19;56.89
6869;BME280;3473;42.604;23.496;2022-08-02T00:55:31;19548.53;;;-140.19;56.75
6869;BME280;3473;42.604;23.496;2022-08-02T00:57:03;19544.66;;;-140.19;56.97
6869;BME280;3473;42.604;23.496;2022-08-02T00:58:36;19550.47;;;-140.19;57.29
6869;BME280;3473;42.604;23.496;2022-08-02T01:00:09;19548.53;;;-140.19;57.52
6869;BME280;3473;42.604;23.496;2022-08-02T01:01:41;19517.47;;;-140.19;58.16
6869;BME280;3473;42.604;23.496;2022-08-02T01:03:13;19523.31;;;-140.19;58.82
6869;BME280;3473;42.604;23.496;2022-08-02T01:04:44;19509.72;;;-140.19;59.12
6869;BME280;3473;42.604;23.496;2022-08-02T01:06:16;19509.72;;;-140.19;59.42
6869;BME280;3473;42.604;23.496;2022-08-02T01:07:48;19509.72;;;-140.19;60.00
6869;BME280;3473;42.604;23.496;2022-08-02T01:09:21;19515.53;;;-140.19;60.54
6869;BME280;3473;42.604;23.496;2022-08-02T01:10:53;19455.38;;;-140.19;60.47
6869;BME280;3473;42.604;23.496;2022-08-02T01:12:25;19439.84;;;-140.19;60.65
6869;BME280;3473;42.604;23.496;2022-08-02T01:13:58;19445.69;;;-140.19;61.06
6869;BME280;3473;42.604;23.496;2022-08-02T01:15:32;19422.41;;;-140.19;61.94
6869;BME280;3473;42.604;23.496;2022-08-02T01:17:09;19385.53;;;-140.19;61.88
6869;BME280;3473;42.604;23.496;2022-08-02T01:18:44;19550.47;;;-140.19;62.01
6869;BME280;3473;42.604;23.496;2022-08-02T01:20:42;19350.59;;;-140.19;62.37
6869;BME280;3473;42.604;23.496;2022-08-02T01:22:37;19371.94;;;-140.19;63.32
6869;BME280;3473;42.604;23.496;2022-08-02T01:24:27;19280.72;;;-140.19;64.22
6869;BME280;3473;42.604;23.496;2022-08-02T01:26:17;19195.34;;;-140.19;65.65
6869;BME280;3473;42.604;23.496;2022-08-02T01:28:27;19040.09;;;-140.19;67.38
6869;BME280;3473;42.604;23.496;2022-08-02T01:30:02;18898.47;;;-140.19;68.32
6869;BME280;3473;42.604;23.496;2022-08-02T01:31:38;18816.97;;;-140.19;68.45
6869;BME280;3473;42.604;23.496;2022-08-02T01:33:15;18737.41;;;-140.19;68.81
6869;BME280;3473;42.604;23.496;2022-08-02T01:34:51;18648.16;;;-140.19;69.51
6869;BME280;3473;42.604;23.496;2022-08-02T01:36:25;18605.47;;;-140.19;70.02
6869;BME280;3473;42.604;23.496;2022-08-02T01:38:06;18520.13;;;-140.19;70.45
6869;BME280;3473;42.604;23.496;2022-08-02T01:39:42;18428.94;;;-140.19;70.79
6869;BME280;3473;42.604;23.496;2022-08-02T01:41:17;18318.34;;;-140.19;70.89
6869;BME280;3473;42.604;23.496;2022-08-02T01:42:52;18310.59;;;-140.19;71.35
6869;BME280;3473;42.604;23.496;2022-08-02T01:44:28;18304.78;;;-140.19;71.10
6869;BME280;3473;42.604;23.496;2022-08-02T01:46:01;18244.63;;;-140.19;70.94
6869;BME280;3473;42.604;23.496;2022-08-02T01:47:34;18283.44;;;-140.19;70.84
6869;BME280;3473;42.604;23.496;2022-08-02T01:49:13;18293.13;;;-140.19;70.60
6869;BME280;3473;42.604;23.496;2022-08-02T01:50:47;18256.28;;;-140.19;70.52
6869;BME280;3473;42.604;23.496;2022-08-02T01:52:20;18244.63;;;-140.19;70.47
6869;BME280;3473;42.604;23.496;2022-08-02T01:53:54;18231.06;;;-140.19;70.14
6869;BME280;3473;42.604;23.496;2022-08-02T01:55:29;18269.84;;;-140.19;70.06
6869;BME280;3473;42.604;23.496;2022-08-02T01:57:04;18269.84;;;-140.19;69.83
6869;BME280;3473;42.604;23.496;2022-08-02T01:58:38;18291.19;;;-140.19;69.99
6869;BME280;3473;42.604;23.496;2022-08-02T02:00:14;18260.16;;;-140.19;69.41
6869;BME280;3473;42.604;23.496;2022-08-02T02:01:47;18281.50;;;-140.19;69.44
6869;BME280;3473;42.604;23.496;2022-08-02T02:03:21;18275.66;;;-140.19;69.58
6869;BME280;3473;42.604;23.496;2022-08-02T02:04:56;18260.16;;;-140.19;69.78
6869;BME280;3473;42.604;23.496;2022-08-02T02:06:29;18250.44;;;-140.19;69.89
6869;BME280;3473;42.604;23.496;2022-08-02T02:08:03;18295.06;;;-140.19;69.84
6869;BME280;3473;42.604;23.496;2022-08-02T02:09:38;18256.28;;;-140.19;70.04
6869;BME280;3473;42.604;23.496;2022-08-02T02:11:10;18190.31;;;-140.19;70.49
6869;BME280;3473;42.604;23.496;2022-08-02T02:12:44;18203.88;;;-140.19;70.42
6869;BME280;3473;42.604;23.496;2022-08-02T02:14:18;18163.16;;;-140.19;70.47
6869;BME280;3473;42.604;23.496;2022-08-02T02:15:53;18184.50;;;-140.19;70.27
6869;BME280;3473;42.604;23.496;2022-08-02T02:17:26;18128.22;;;-140.19;70.57
6869;BME280;3473;42.604;23.496;2022-08-02T02:18:59;18147.63;;;-140.19;71.02
6869;BME280;3473;42.604;23.496;2022-08-02T02:20:32;18104.94;;;-140.19;71.01
6869;BME280;3473;42.604;23.496;2022-08-02T02:22:04;18060.34;;;-140.19;70.97
6869;BME280;3473;42.604;23.496;2022-08-02T02:23:36;18163.16;;;-140.19;70.89
6869;BME280;3473;42.604;23.496;2022-08-02T02:25:09;18091.38;;;-140.19;70.93
6869;BME280;3473;42.604;23.496;2022-08-02T02:26:42;18075.84;;;-140.19;71.16
6869;BME280;3473;42.604;23.496;2022-08-02T02:28:20;18050.63;;;-140.19;71.26
6869;BME280;3473;42.604;23.496;2022-08-02T02:29:54;18037.06;;;-140.19;70.96
6869;BME280;3473;42.604;23.496;2022-08-02T02:31:31;18033.19;;;-140.19;71.02
6869;BME280;3473;42.604;23.496;2022-08-02T02:33:06;18064.22;;;-140.19;70.44
6869;BME280;3473;42.604;23.496;2022-08-02T02:34:42;18025.41;;;-140.19;70.78
6869;BME280;3473;42.604;23.496;2022-08-02T02:36:18;18037.06;;;-140.19;70.85
6869;BME280;3473;42.604;23.496;2022-08-02T02:37:51;18058.41;;;-140.19;71.08
6869;BME280;3473;42.604;23.496;2022-08-02T02:39:25;18033.19;;;-140.19;71.22
6869;BME280;3473;42.604;23.496;2022-08-02T02:41:00;17984.69;;;-140.19;70.83
6869;BME280;3473;42.604;23.496;2022-08-02T02:42:33;18064.22;;;-140.19;69.91
6869;BME280;3473;42.604;23.496;2022-08-02T02:44:08;18091.38;;;-140.19;70.29
6869;BME280;3473;42.604;23.496;2022-08-02T02:45:42;18075.84;;;-140.19;70.31
6869;BME280;3473;42.604;23.496;2022-08-02T02:47:18;18093.31;;;-140.19;70.25
6869;BME280;3473;42.604;23.496;2022-08-02T02:48:51;18200.00;;;-140.19;70.25
6869;BME280;3473;42.604;23.496;2022-08-02T02:50:24;18126.28;;;-140.19;69.72
6869;BME280;3473;42.604;23.496;2022-08-02T02:51:56;18209.72;;;-140.19;69.68
6869;BME280;3473;42.604;23.496;2022-08-02T02:53:30;18167.03;;;-140.19;69.13
6869;BME280;3473;42.604;23.496;2022-08-02T02:55:05;18114.66;;;-140.19;69.37
6869;BME280;3473;42.604;23.496;2022-08-02T02:56:40;18141.81;;;-140.19;69.41
6869;BME280;3473;42.604;23.496;2022-08-02T02:58:13;18101.06;;;-140.19;69.09
6869;BME280;3473;42.604;23.496;2022-08-02T02:59:46;18238.81;;;-140.19;68.90
6869;BME280;3473;42.604;23.496;2022-08-02T03:01:20;18161.22;;;-140.19;69.14
6869;BME280;3473;42.604;23.496;2022-08-02T03:02:59;18153.44;;;-140.19;68.87
6869;BME280;3473;42.604;23.496;2022-08-02T03:04:32;18157.34;;;-140.19;68.98
6869;BME280;3473;42.604;23.496;2022-08-02T03:06:05;18174.78;;;-140.19;68.71
6869;BME280;3473;42.604;23.496;2022-08-02T03:07:37;18223.28;;;-140.19;68.64
6869;BME280;3473;42.604;23.496;2022-08-02T03:09:09;18143.75;;;-140.19;68.60
6869;BME280;3473;42.604;23.496;2022-08-02T03:10:42;18174.78;;;-140.19;68.30
6869;BME280;3473;42.604;23.496;2022-08-02T03:12:15;18167.03;;;-140.19;68.48
6869;BME280;3473;42.604;23.496;2022-08-02T03:13:47;18203.88;;;-140.19;68.14
6869;BME280;3473;42.604;23.496;2022-08-02T03:15:20;18167.03;;;-140.19;68.53
6869;BME280;3473;42.604;23.496;2022-08-02T03:16:53;18267.91;;;-140.19;68.44
6869;BME280;3473;42.604;23.496;2022-08-02T03:18:34;18198.06;;;-140.19;68.82
6869;BME280;3473;42.604;23.496;2022-08-02T03:20:09;18163.16;;;-140.19;68.93
6869;BME280;3473;42.604;23.496;2022-08-02T03:21:42;18165.09;;;-140.19;69.43
6869;BME280;3473;42.604;23.496;2022-08-02T03:23:14;18223.28;;;-140.19;69.66
6869;BME280;3473;42.604;23.496;2022-08-02T03:24:47;18168.97;;;-140.19;69.43
6869;BME280;3473;42.604;23.496;2022-08-02T03:26:19;18178.66;;;-140.19;69.65
6869;BME280;3473;42.604;23.496;2022-08-02T03:27:50;18139.88;;;-140.19;69.68
6869;BME280;3473;42.604;23.496;2022-08-02T03:29:22;18200.00;;;-140.19;69.52
6869;BME280;3473;42.604;23.496;2022-08-02T03:30:55;18139.88;;;-140.19;69.31
6869;BME280;3473;42.604;23.496;2022-08-02T03:32:27;18149.56;;;-140.19;69.27
6869;BME280;3473;42.604;23.496;2022-08-02T03:34:01;18163.16;;;-140.19;69.34
6869;BME280;3473;42.604;23.496;2022-08-02T03:35:33;18159.28;;;-140.19;69.69
6869;BME280;3473;42.604;23.496;2022-08-02T03:37:04;18205.81;;;-140.19;69.01
6869;BME280;3473;42.604;23.496;2022-08-02T03:38:37;16747.31;;;-140.19;68.85
6869;BME280;3473;42.604;23.496;2022-08-02T03:40:10;18186.44;;;-140.19;68.50
6869;BME280;3473;42.604;23.496;2022-08-02T03:41:44;18176.72;;;-140.19;68.21
6869;BME280;3473;42.604;23.496;2022-08-02T03:43:16;18213.59;;;-140.19;68.17
6869;BME280;3473;42.604;23.496;2022-08-02T03:44:49;18260.16;;;-140.19;67.98
6869;BME280;3473;42.604;23.496;2022-08-02T03:46:22;18229.09;;;-140.19;67.51
6869;BME280;3473;42.604;23.496;2022-08-02T03:47:56;18256.28;;;-140.19;66.54
6869;BME280;3473;42.604;23.496;2022-08-02T03:49:29;18281.50;;;-140.19;66.69
6869;BME280;3473;42.604;23.496;2022-08-02T03:51:02;18320.28;;;-140.19;66.62
6869;BME280;3473;42.604;23.496;2022-08-02T03:52:34;18343.56;;;-140.19;65.78
6869;BME280;3473;42.604;23.496;2022-08-02T03:54:07;18378.50;;;-140.19;65.27
6869;BME280;3473;42.604;23.496;2022-08-02T03:55:39;18434.75;;;-140.19;65.32
6869;BME280;3473;42.604;23.496;2022-08-02T03:57:10;18446.38;;;-140.19;64.70
6869;BME280;3473;42.604;23.496;2022-08-02T03:58:42;18553.09;;;-140.19;64.23
6869;BME280;3473;42.604;23.496;2022-08-02T04:00:17;18446.38;;;-140.19;63.58
6869;BME280;3473;42.604;23.496;2022-08-02T04:01:49;18518.19;;;-140.19;63.20
6869;BME280;3473;42.604;23.496;2022-08-02T04:03:21;18496.84;;;-140.19;63.32
6869;BME280;3473;42.604;23.496;2022-08-02T04:04:53;18531.75;;;-140.19;62.85
6869;BME280;3473;42.604;23.496;2022-08-02T04:06:24;18512.34;;;-140.19;62.39
6869;BME280;3473;42.604;23.496;2022-08-02T04:07:56;18545.34;;;-140.19;62.17
6869;BME280;3473;42.604;23.496;2022-08-02T04:09:29;18601.59;;;-140.19;61.78
6869;BME280;3473;42.604;23.496;2022-08-02T04:11:01;18646.22;;;-140.19;61.78
6869;BME280;3473;42.604;23.496;2022-08-02T04:12:51;18562.78;;;-140.19;61.06
6869;BME280;3473;42.604;23.496;2022-08-02T04:14:24;18586.06;;;-140.19;60.98
6869;BME280;3473;42.604;23.496;2022-08-02T04:15:58;18626.81;;;-140.19;60.97
6869;BME280;3473;42.604;23.496;2022-08-02T04:17:32;18595.78;;;-140.19;60.85
6869;BME280;3473;42.604;23.496;2022-08-02T04:19:09;18648.16;;;-140.19;61.33
6869;BME280;3473;42.604;23.496;2022-08-02T04:20:48;18582.19;;;-140.19;59.62
6869;BME280;3473;42.604;23.496;2022-08-02T04:22:23;18638.47;;;-140.19;58.57
6869;BME280;3473;42.604;23.496;2022-08-02T04:23:56;18780.09;;;-140.19;58.37
6869;BME280;3473;42.604;23.496;2022-08-02T04:25:30;18688.91;;;-140.19;58.93
6869;BME280;3473;42.604;23.496;2022-08-02T04:27:03;18642.34;;;-140.19;59.29
6869;BME280;3473;42.604;23.496;2022-08-02T04:28:37;18657.88;;;-140.19;57.88
6869;BME280;3473;42.604;23.496;2022-08-02T04:30:09;18681.16;;;-140.19;57.60
6869;BME280;3473;42.604;23.496;2022-08-02T04:31:42;18745.19;;;-140.19;57.18
6869;BME280;3473;42.604;23.496;2022-08-02T04:33:14;18735.47;;;-140.19;57.07
6869;BME280;3473;42.604;23.496;2022-08-02T04:34:46;18721.91;;;-140.19;56.69
6869;BME280;3473;42.604;23.496;2022-08-02T04:36:20;18718.00;;;-140.19;56.23
6869;BME280;3473;42.604;23.496;2022-08-02T04:37:52;18768.47;;;-140.19;55.44
6869;BME280;3473;42.604;23.496;2022-08-02T04:39:23;18879.06;;;-140.19;56.23
6869;BME280;3473;42.604;23.496;2022-08-02T04:40:55;18768.47;;;-140.19;58.03
6869;BME280;3473;42.604;23.496;2022-08-02T04:42:27;18774.28;;;-140.19;56.97
6869;BME280;3473;42.604;23.496;2022-08-02T04:43:59;18799.50;;;-140.19;55.52
6869;BME280;3473;42.604;23.496;2022-08-02T04:45:31;18867.41;;;-140.19;53.78
6869;BME280;3473;42.604;23.496;2022-08-02T04:47:02;18840.25;;;-140.19;53.56
6869;BME280;3473;42.604;23.496;2022-08-02T04:48:34;18882.94;;;-140.19;51.84
6869;BME280;3473;42.604;23.496;2022-08-02T04:50:07;19133.25;;;-140.19;51.98
6869;BME280;3473;42.604;23.496;2022-08-02T04:51:40;18770.41;;;-140.19;52.70
6869;BME280;3473;42.604;23.496;2022-08-02T04:53:13;18919.81;;;-140.19;52.40
6869;BME280;3473;42.604;23.496;2022-08-02T04:54:43;18906.22;;;-140.19;51.30
6869;BME280;3473;42.604;23.496;2022-08-02T04:56:15;18908.16;;;-140.19;50.27
6869;BME280;3473;42.604;23.496;2022-08-02T04:57:47;19012.94;;;-140.19;50.52
6869;BME280;3473;42.604;23.496;2022-08-02T04:59:26;18974.13;;;-140.19;49.44
6869;BME280;3473;42.604;23.496;2022-08-02T05:00:58;19024.59;;;-140.19;49.82
6869;BME280;3473;42.604;23.496;2022-08-02T05:02:30;19078.91;;;-140.19;50.38
6869;BME280;3473;42.604;23.496;2022-08-02T05:04:01;18974.13;;;-140.19;50.61
6869;BME280;3473;42.604;23.496;2022-08-02T05:05:33;18978.00;;;-140.19;50.17
6869;BME280;3473;42.604;23.496;2022-08-02T05:07:06;19016.81;;;-140.19;50.29
6869;BME280;3473;42.604;23.496;2022-08-02T05:08:38;19016.81;;;-140.19;50.15
6869;BME280;3473;42.604;23.496;2022-08-02T05:10:10;18991.59;;;-140.19;49.48
6869;BME280;3473;42.604;23.496;2022-08-02T05:11:40;18978.00;;;-140.19;49.32
6869;BME280;3473;42.604;23.496;2022-08-02T05:13:12;19034.28;;;-140.19;49.00
6869;BME280;3473;42.604;23.496;2022-08-02T05:14:43;19065.34;;;-140.19;48.08
6869;BME280;3473;42.604;23.496;2022-08-02T05:16:15;19323.41;;;-140.19;47.93
6869;BME280;3473;42.604;23.496;2022-08-02T05:17:47;19059.50;;;-140.19;46.92
6869;BME280;3473;42.604;23.496;2022-08-02T05:19:18;19016.81;;;-140.19;47.09
6869;BME280;3473;42.604;23.496;2022-08-02T05:20:50;19092.50;;;-140.19;46.68
6869;BME280;3473;42.604;23.496;2022-08-02T05:22:23;19104.13;;;-140.19;46.29
6869;BME280;3473;42.604;23.496;2022-08-02T05:23:54;19113.84;;;-140.19;46.51
6869;BME280;3473;42.604;23.496;2022-08-02T05:25:26;19117.72;;;-140.19;46.12
6869;BME280;3473;42.604;23.496;2022-08-02T05:26:58;19090.56;;;-140.19;47.59
6869;BME280;3473;42.604;23.496;2022-08-02T05:28:30;19113.84;;;-140.19;48.00
6869;BME280;3473;42.604;23.496;2022-08-02T05:30:02;19109.97;;;-140.19;46.77
6869;BME280;3473;42.604;23.496;2022-08-02T05:31:34;19108.03;;;-140.19;47.51
6869;BME280;3473;42.604;23.496;2022-08-02T05:33:06;19135.19;;;-140.19;46.87
6869;BME280;3473;42.604;23.496;2022-08-02T05:34:38;19131.31;;;-140.19;46.11
6869;BME280;3473;42.604;23.496;2022-08-02T05:36:10;19214.75;;;-140.19;46.21
6869;BME280;3473;42.604;23.496;2022-08-02T05:37:43;19257.44;;;-140.19;46.02
6869;BME280;3473;42.604;23.496;2022-08-02T05:39:15;19195.34;;;-140.19;45.23
6869;BME280;3473;42.604;23.496;2022-08-02T05:40:47;19144.88;;;-140.19;45.30
6869;BME280;3473;42.604;23.496;2022-08-02T05:42:18;19201.16;;;-140.19;44.84
6869;BME280;3473;42.604;23.496;2022-08-02T05:43:50;19540.78;;;-140.19;44.42
6869;BME280;3473;42.604;23.496;2022-08-02T05:45:22;19195.34;;;-140.19;44.03
6869;BME280;3473;42.604;23.496;2022-08-02T05:46:53;19201.16;;;-140.19;44.59
6869;BME280;3473;42.604;23.496;2022-08-02T05:48:25;19238.03;;;-140.19;43.82
6869;BME280;3473;42.604;23.496;2022-08-02T05:49:57;19195.34;;;-140.19;43.41
6869;BME280;3473;42.604;23.496;2022-08-02T05:51:35;19288.50;;;-140.19;43.79
6869;BME280;3473;42.604;23.496;2022-08-02T05:53:15;19172.06;;;-140.19;44.02
6869;BME280;3473;42.604;23.496;2022-08-02T05:54:53;19170.13;;;-140.19;44.14
6869;BME280;3473;42.604;23.496;2022-08-02T05:56:31;19236.09;;;-140.19;43.43
6869;BME280;3473;42.604;23.496;2022-08-02T05:58:07;19358.34;;;-140.19;44.07
6869;BME280;3473;42.604;23.496;2022-08-02T05:59:52;19253.56;;;-140.19;43.56
6869;BME280;3473;42.604;23.496;2022-08-02T06:01:32;19230.28;;;-140.19;44.09
6869;BME280;3473;42.604;23.496;2022-08-02T06:03:20;19247.75;;;-140.19;43.00
6869;BME280;3473;42.604;23.496;2022-08-02T06:05:03;19298.19;;;-140.19;42.09
6869;BME280;3473;42.604;23.496;2022-08-02T06:06:37;19249.69;;;-140.19;42.54
6869;BME280;3473;42.604;23.496;2022-08-02T06:08:15;19296.25;;;-140.19;41.62
6869;BME280;3473;42.604;23.496;2022-08-02T06:09:48;19230.28;;;-140.19;42.10
6869;BME280;3473;42.604;23.496;2022-08-02T06:11:21;19257.44;;;-140.19;42.05
6869;BME280;3473;42.604;23.496;2022-08-02T06:12:55;19280.72;;;-140.19;42.16
6869;BME280;3473;42.604;23.496;2022-08-02T06:14:32;19269.09;;;-140.19;42.37
6869;BME280;3473;42.604;23.496;2022-08-02T06:16:04;19344.78;;;-140.19;42.44
6869;BME280;3473;42.604;23.496;2022-08-02T06:17:39;19265.19;;;-140.19;41.98
6869;BME280;3473;42.604;23.496;2022-08-02T06:19:11;19286.56;;;-140.19;42.46
6869;BME280;3473;42.604;23.496;2022-08-02T06:20:46;19300.13;;;-140.19;40.98
6869;BME280;3473;42.604;23.496;2022-08-02T06:22:20;19340.88;;;-140.19;42.13
6869;BME280;3473;42.604;23.496;2022-08-02T06:23:54;19472.84;;;-140.19;41.99
6869;BME280;3473;42.604;23.496;2022-08-02T06:25:28;19309.84;;;-140.19;41.48
6869;BME280;3473;42.604;23.496;2022-08-02T06:27:01;19333.13;;;-140.19;41.02
6869;BME280;3473;42.604;23.496;2022-08-02T06:28:36;19350.59;;;-140.19;41.25
6869;BME280;3473;42.604;23.496;2022-08-02T06:30:09;19352.53;;;-140.19;40.20
6869;BME280;3473;42.604;23.496;2022-08-02T06:31:41;19383.59;;;-140.19;39.98
6869;BME280;3473;42.604;23.496;2022-08-02T06:33:13;19338.94;;;-140.19;40.30
6869;BME280;3473;42.604;23.496;2022-08-02T06:34:45;19366.13;;;-140.19;40.50
6869;BME280;3473;42.604;23.496;2022-08-02T06:36:21;19362.22;;;-140.19;40.66
6869;BME280;3473;42.604;23.496;2022-08-02T06:37:59;19420.44;;;-140.19;40.51
6869;BME280;3473;42.604;23.496;2022-08-02T06:39:38;19399.09;;;-140.19;40.20
6869;BME280;3473;42.604;23.496;2022-08-02T06:41:14;19589.28;;;-140.19;39.87
6869;BME280;3473;42.604;23.496;2022-08-02T06:42:49;19383.59;;;-140.19;40.10
6869;BME280;3473;42.604;23.496;2022-08-02T06:44:23;19414.63;;;-140.19;39.89
6869;BME280;3473;42.604;23.496;2022-08-02T06:45:55;19434.03;;;-140.19;40.85
6869;BME280;3473;42.604;23.496;2022-08-02T06:47:27;19472.84;;;-140.19;41.26
6869;BME280;3473;42.604;23.496;2022-08-02T06:48:59;19403.00;;;-140.19;40.99
6869;BME280;3473;42.604;23.496;2022-08-02T06:50:31;19455.38;;;-140.19;39.77
6869;BME280;3473;42.604;23.496;2022-08-02T06:52:04;19439.84;;;-140.19;39.60
6869;BME280;3473;42.604;23.496;2022-08-02T06:53:35;19424.34;;;-140.19;39.67
6869;BME280;3473;42.604;23.496;2022-08-02T06:55:09;19482.56;;;-140.19;39.70
6869;BME280;3473;42.604;23.496;2022-08-02T06:56:40;19468.97;;;-140.19;39.68
6869;BME280;3473;42.604;23.496;2022-08-02T06:58:12;19397.16;;;-140.19;39.83
6869;BME280;3473;42.604;23.496;2022-08-02T06:59:44;19484.50;;;-140.19;39.62
6869;BME280;3473;42.604;23.496;2022-08-02T07:01:17;19482.56;;;-140.19;39.00
6869;BME280;3473;42.604;23.496;2022-08-02T07:02:49;19480.63;;;-140.19;38.99
6869;BME280;3473;42.604;23.496;2022-08-02T07:04:21;19468.97;;;-140.19;39.21
6869;BME280;3473;42.604;23.496;2022-08-02T07:05:53;19435.97;;;-140.19;38.38
6869;BME280;3473;42.604;23.496;2022-08-02T07:07:25;19449.56;;;-140.19;37.51
6869;BME280;3473;42.604;23.496;2022-08-02T07:08:57;19492.25;;;-140.19;37.35
6869;BME280;3473;42.604;23.496;2022-08-02T07:10:30;21014.09;;;-140.19;37.55
6869;BME280;3473;42.604;23.496;2022-08-02T07:12:02;19536.91;;;-140.19;37.58
6869;BME280;3473;42.604;23.496;2022-08-02T07:13:35;19694.09;;;-140.19;37.86
6869;BME280;3473;42.604;23.496;2022-08-02T07:15:07;19608.69;;;-140.19;36.60
6869;BME280;3473;42.604;23.496;2022-08-02T07:16:41;19511.66;;;-140.19;36.39
6869;BME280;3473;42.604;23.496;2022-08-02T07:18:13;19531.06;;;-140.19;36.56
6869;BME280;3473;42.604;23.496;2022-08-02T07:19:46;19583.47;;;-140.19;36.24
6869;BME280;3473;42.604;23.496;2022-08-02T07:21:18;19573.75;;;-140.19;36.69
6869;BME280;3473;42.604;23.496;2022-08-02T07:22:50;19581.53;;;-140.19;36.47
6869;BME280;3473;42.604;23.496;2022-08-02T07:24:21;19616.47;;;-140.19;36.53
6869;BME280;3473;42.604;23.496;2022-08-02T07:25:54;19593.19;;;-140.19;35.73
6869;BME280;3473;42.604;23.496;2022-08-02T07:27:27;19587.34;;;-140.19;35.95
6869;BME280;3473;42.604;23.496;2022-08-02T07:28:59;19622.28;;;-140.19;37.18
6869;BME280;3473;42.604;23.496;2022-08-02T07:30:32;19630.03;;;-140.19;35.74
6869;BME280;3473;42.604;23.496;2022-08-02T07:32:04;19620.34;;;-140.19;36.51
6869;BME280;3473;42.604;23.496;2022-08-02T07:33:36;19618.41;;;-140.19;36.24
6869;BME280;3473;42.604;23.496;2022-08-02T07:35:08;19608.69;;;-140.19;35.86
6869;BME280;3473;42.604;23.496;2022-08-02T07:36:40;19754.25;;;-140.19;35.96
6869;BME280;3473;42.604;23.496;2022-08-02T07:38:11;19651.41;;;-140.19;34.84
6869;BME280;3473;42.604;23.496;2022-08-02T07:39:42;19663.03;;;-140.19;35.03
6869;BME280;3473;42.604;23.496;2022-08-02T07:41:16;19637.81;;;-140.19;35.25
6869;BME280;3473;42.604;23.496;2022-08-02T07:42:48;19657.22;;;-140.19;35.59
6869;BME280;3473;42.604;23.496;2022-08-02T07:44:22;19705.75;;;-140.19;35.03
6869;BME280;3473;42.604;23.496;2022-08-02T07:45:54;19657.22;;;-140.19;34.90
6869;BME280;3473;42.604;23.496;2022-08-02T07:47:26;19713.50;;;-140.19;35.17
6869;BME280;3473;42.604;23.496;2022-08-02T07:48:58;19692.16;;;-140.19;35.30
6869;BME280;3473;42.604;23.496;2022-08-02T07:50:30;19765.91;;;-140.19;34.82
6869;BME280;3473;42.604;23.496;2022-08-02T07:52:02;19785.31;;;-140.19;34.57
6869;BME280;3473;42.604;23.496;2022-08-02T07:53:34;19715.44;;;-140.19;34.35
6869;BME280;3473;42.604;23.496;2022-08-02T07:55:06;19705.75;;;-140.19;34.90
6869;BME280;3473;42.604;23.496;2022-08-02T07:56:39;19773.66;;;-140.19;34.66
6869;BME280;3473;42.604;23.496;2022-08-02T07:58:11;19746.50;;;-140.19;34.29
6869;BME280;3473;42.604;23.496;2022-08-02T07:59:43;19729.03;;;-140.19;34.34
6869;BME280;3473;42.604;23.496;2022-08-02T08:01:15;19925.06;;;-140.19;33.82
6869;BME280;3473;42.604;23.496;2022-08-02T08:02:48;19911.47;;;-140.19;33.83
6869;BME280;3473;42.604;23.496;2022-08-02T08:04:20;19820.25;;;-140.19;33.55
6869;BME280;3473;42.604;23.496;2022-08-02T08:05:52;19771.72;;;-140.19;33.94
6869;BME280;3473;42.604;23.496;2022-08-02T08:07:25;19800.84;;;-140.19;34.29
6869;BME280;3473;42.604;23.496;2022-08-02T08:08:59;19818.31;;;-140.19;33.78